Time;durP1;ratioP1;P1;durP2;ratioP2;P2;SDS_P1;SDS_P2;PMS_P1;PMS_P2;Temp;Humidity;BMP_temperature;BMP_pressure;BME280_temperature;BME280_humidity;BME280_pressure;Samples;Min_cycle;Max_cycle;Signal;HPM_P1;HPM_P2
2023/10/22 00:02:22;;;;;;;6.20;2.90;;;;;;;;;;5107835;27;20027;-61
2023/10/22 00:04:48;;;;;;;5.05;2.50;;;;;;;;;;5105295;27;20041;-59
2023/10/22 00:07:14;;;;;;;5.25;2.65;;;;;;;;;;5104392;27;20055;-59
2023/10/22 00:09:41;;;;;;;7.10;2.90;;;;;;;;;;5105331;27;20052;-59
2023/10/22 00:12:07;;;;;;;7.35;2.88;;;;;;;;;;5106020;27;20518;-60
2023/10/22 00:14:33;;;;;;;5.90;2.30;;;;;;;;;;5089189;28;20039;-60
2023/10/22 00:17:00;;;;;;;4.97;2.30;;;;;;;;;;5106071;27;20032;-60
2023/10/22 00:19:45;;;;;;;5.40;2.22;;;;;;;;;;5106852;27;20028;-59
2023/10/22 00:22:14;;;;;;;3.03;1.85;;;;;;;;;;5108408;27;20035;-62
2023/10/22 00:24:41;;;;;;;4.53;2.28;;;;;;;;;;5103820;28;20050;-59
2023/10/22 00:27:07;;;;;;;5.90;3.30;;;;;;;;;;5106413;27;20052;-59
2023/10/22 00:29:33;;;;;;;4.47;2.17;;;;;;;;;;5084805;28;20129;-59
2023/10/22 00:31:59;;;;;;;3.50;1.88;;;;;;;;;;5068596;27;20039;-59
2023/10/22 00:34:25;;;;;;;3.92;2.05;;;;;;;;;;5105238;27;20372;-59
2023/10/22 00:36:53;;;;;;;4.60;1.90;;;;;;;;;;5098438;27;20044;-59
2023/10/22 00:39:19;;;;;;;4.18;1.63;;;;;;;;;;5101012;27;20032;-59
2023/10/22 00:41:45;;;;;;;5.00;1.70;;;;;;;;;;5099326;27;20036;-59
2023/10/22 00:44:11;;;;;;;3.35;1.67;;;;;;;;;;5106713;27;20050;-59
2023/10/22 00:46:38;;;;;;;3.55;1.70;;;;;;;;;;5086626;28;20479;-59
2023/10/22 00:49:04;;;;;;;6.18;1.77;;;;;;;;;;5104351;27;20063;-59
2023/10/22 00:51:30;;;;;;;2.92;1.70;;;;;;;;;;5107218;27;20534;-60
2023/10/22 00:53:57;;;;;;;4.10;1.77;;;;;;;;;;5087798;28;20028;-59
2023/10/22 00:56:25;;;;;;;3.17;1.98;;;;;;;;;;5087795;28;20630;-59
2023/10/22 00:58:53;;;;;;;4.18;2.15;;;;;;;;;;5117878;27;20032;-59
2023/10/22 01:01:21;;;;;;;3.42;1.98;;;;;;;;;;5086513;27;20047;-58
2023/10/22 01:03:47;;;;;;;4.70;2.53;;;;;;;;;;5087686;28;20028;-59
2023/10/22 01:06:13;;;;;;;4.95;2.22;;;;;;;;;;5105409;27;20047;-59
2023/10/22 01:08:40;;;;;;;3.85;2.03;;;;;;;;;;5112141;27;20414;-59
2023/10/22 01:11:08;;;;;;;6.43;1.80;;;;;;;;;;5105629;27;20050;-58
2023/10/22 01:13:36;;;;;;;3.53;1.75;;;;;;;;;;5106474;27;20040;-60
2023/10/22 01:16:03;;;;;;;2.85;1.80;;;;;;;;;;5101526;27;20051;-60
2023/10/22 01:18:29;;;;;;;2.42;2.20;;;;;;;;;;5104976;27;20418;-59
2023/10/22 01:20:55;;;;;;;4.97;1.92;;;;;;;;;;5113456;27;20048;-60
2023/10/22 01:23:22;;;;;;;5.72;2.40;;;;;;;;;;5104330;28;20023;-59
2023/10/22 01:25:50;;;;;;;2.92;1.90;;;;;;;;;;5108236;28;20028;-59
2023/10/22 01:28:16;;;;;;;5.40;2.10;;;;;;;;;;5100939;27;20490;-59
2023/10/22 01:30:42;;;;;;;4.88;2.50;;;;;;;;;;5104910;27;20487;-60
2023/10/22 01:33:09;;;;;;;3.28;2.45;;;;;;;;;;5066003;28;20032;-60
2023/10/22 01:35:35;;;;;;;4.45;2.30;;;;;;;;;;5104947;27;20410;-60
2023/10/22 01:38:01;;;;;;;4.97;2.55;;;;;;;;;;5078438;28;20434;-60
2023/10/22 01:40:27;;;;;;;6.68;2.10;;;;;;;;;;5084909;28;20502;-59
2023/10/22 01:42:53;;;;;;;5.55;2.70;;;;;;;;;;5103056;27;20034;-58
2023/10/22 01:45:20;;;;;;;4.05;2.53;;;;;;;;;;5086730;27;20026;-58
2023/10/22 01:47:46;;;;;;;5.40;2.63;;;;;;;;;;5101402;27;20039;-58
2023/10/22 01:50:13;;;;;;;3.58;2.38;;;;;;;;;;5104957;27;20031;-59
2023/10/22 01:52:39;;;;;;;5.57;2.80;;;;;;;;;;5089558;28;20048;-59
2023/10/22 01:55:06;;;;;;;5.43;3.00;;;;;;;;;;5105861;27;20027;-59
2023/10/22 01:57:33;;;;;;;4.00;2.88;;;;;;;;;;5069540;28;20395;-58
2023/10/22 01:59:59;;;;;;;9.95;3.63;;;;;;;;;;5084623;27;20043;-59
2023/10/22 02:02:26;;;;;;;3.97;2.80;;;;;;;;;;5087212;28;20032;-59
2023/10/22 02:04:52;;;;;;;6.38;3.22;;;;;;;;;;5105063;27;20032;-60
2023/10/22 02:07:19;;;;;;;4.22;3.10;;;;;;;;;;5102705;27;20038;-59
2023/10/22 02:09:45;;;;;;;6.32;3.45;;;;;;;;;;5111410;27;20419;-59
2023/10/22 02:12:13;;;;;;;6.78;3.08;;;;;;;;;;5090105;27;20039;-60
2023/10/22 02:14:39;;;;;;;7.85;3.55;;;;;;;;;;5107363;28;20042;-60
2023/10/22 02:17:06;;;;;;;5.80;3.38;;;;;;;;;;5103604;28;20089;-59
2023/10/22 02:19:32;;;;;;;6.68;2.95;;;;;;;;;;5101880;28;20042;-59
2023/10/22 02:21:58;;;;;;;5.15;3.03;;;;;;;;;;5102132;28;20415;-59
2023/10/22 02:24:24;;;;;;;6.25;3.15;;;;;;;;;;5102793;28;20023;-59
2023/10/22 02:26:50;;;;;;;4.43;2.70;;;;;;;;;;5101255;28;20043;-60
2023/10/22 02:29:16;;;;;;;4.22;2.75;;;;;;;;;;5100779;27;20027;-59
2023/10/22 02:31:42;;;;;;;5.78;2.63;;;;;;;;;;5097582;28;20055;-59
2023/10/22 02:34:09;;;;;;;8.23;2.80;;;;;;;;;;5105304;28;20051;-59
2023/10/22 02:36:35;;;;;;;3.53;2.40;;;;;;;;;;5099789;28;20398;-59
2023/10/22 02:39:04;;;;;;;5.57;2.40;;;;;;;;;;5081483;28;20027;-59
2023/10/22 02:41:30;;;;;;;4.53;2.58;;;;;;;;;;5088368;28;20402;-59
2023/10/22 02:43:58;;;;;;;6.25;3.00;;;;;;;;;;5104999;28;20048;-58
2023/10/22 02:46:24;;;;;;;5.28;3.50;;;;;;;;;;5104537;28;20031;-58
2023/10/22 02:48:50;;;;;;;6.18;3.83;;;;;;;;;;5101155;28;20055;-59
2023/10/22 02:51:17;;;;;;;6.28;3.75;;;;;;;;;;5106097;28;20031;-59
2023/10/22 02:53:43;;;;;;;5.75;3.70;;;;;;;;;;5106115;28;20036;-59
2023/10/22 02:56:10;;;;;;;9.25;4.57;;;;;;;;;;5105569;28;20054;-58
2023/10/22 02:58:38;;;;;;;8.55;3.90;;;;;;;;;;5087824;28;20036;-59
2023/10/22 03:01:05;;;;;;;8.10;4.80;;;;;;;;;;5091860;28;20035;-59
2023/10/22 03:03:38;;;;;;;7.32;4.90;;;;;;;;;;5087192;28;20043;-58
2023/10/22 03:06:06;;;;;;;10.38;4.80;;;;;;;;;;5109040;27;20384;-59
2023/10/22 03:08:37;;;;;;;5.95;4.10;;;;;;;;;;5089116;28;20047;-59
2023/10/22 03:11:04;;;;;;;6.18;3.35;;;;;;;;;;5089669;27;20047;-59
2023/10/22 03:13:31;;;;;;;7.03;3.65;;;;;;;;;;5113946;27;20039;-58
2023/10/22 03:16:06;;;;;;;7.57;3.50;;;;;;;;;;5093798;28;20024;-59
2023/10/22 03:18:32;;;;;;;7.20;2.97;;;;;;;;;;5089054;28;20039;-60
2023/10/22 03:20:59;;;;;;;5.80;2.67;;;;;;;;;;5105094;27;20050;-59
2023/10/22 03:23:26;;;;;;;5.05;2.95;;;;;;;;;;5107057;27;20035;-59
2023/10/22 03:25:52;;;;;;;6.25;2.60;;;;;;;;;;5087092;28;20038;-59
2023/10/22 03:28:18;;;;;;;5.03;2.90;;;;;;;;;;5115836;27;20043;-59
2023/10/22 03:30:44;;;;;;;4.47;2.13;;;;;;;;;;5068733;28;20515;-59
2023/10/22 03:33:10;;;;;;;5.32;2.25;;;;;;;;;;5109795;27;20518;-60
2023/10/22 03:35:36;;;;;;;6.68;2.58;;;;;;;;;;5114245;27;20043;-60
2023/10/22 03:38:03;;;;;;;7.28;2.22;;;;;;;;;;5088705;27;20047;-59
2023/10/22 03:40:33;;;;;;;4.65;2.10;;;;;;;;;;5106473;28;20027;-59
2023/10/22 03:42:59;;;;;;;4.65;2.20;;;;;;;;;;5108765;27;20129;-59
2023/10/22 03:45:26;;;;;;;5.88;2.10;;;;;;;;;;5107925;27;20031;-58
2023/10/22 03:47:54;;;;;;;5.70;2.15;;;;;;;;;;5086475;28;20411;-59
2023/10/22 03:50:20;;;;;;;3.75;2.20;;;;;;;;;;5089430;28;20054;-59
2023/10/22 03:52:46;;;;;;;4.68;1.50;;;;;;;;;;5090583;28;20035;-58
2023/10/22 03:55:12;;;;;;;3.50;1.80;;;;;;;;;;5088831;27;20055;-59
2023/10/22 03:57:38;;;;;;;4.68;1.80;;;;;;;;;;5104327;27;20031;-59
2023/10/22 04:00:07;;;;;;;2.13;1.35;;;;;;;;;;5092080;27;20055;-59
2023/10/22 04:02:37;;;;;;;3.58;1.75;;;;;;;;;;5108485;27;20036;-59
2023/10/22 04:05:04;;;;;;;6.05;1.60;;;;;;;;;;5104875;27;20032;-58
2023/10/22 04:07:31;;;;;;;5.22;1.75;;;;;;;;;;5104768;27;20032;-59
2023/10/22 04:09:57;;;;;;;3.45;1.48;;;;;;;;;;5109998;27;20047;-59
2023/10/22 04:12:24;;;;;;;4.00;2.35;;;;;;;;;;5107302;27;20047;-59
2023/10/22 04:14:50;;;;;;;3.05;1.80;;;;;;;;;;5105093;27;20062;-59
2023/10/22 04:17:16;;;;;;;2.65;1.50;;;;;;;;;;5107445;27;20039;-59
2023/10/22 04:19:42;;;;;;;5.70;2.00;;;;;;;;;;5105170;27;20553;-58
2023/10/22 04:22:08;;;;;;;3.65;1.48;;;;;;;;;;5093684;27;20533;-58
2023/10/22 04:24:34;;;;;;;1.77;1.55;;;;;;;;;;5091846;28;20024;-60
2023/10/22 04:27:00;;;;;;;2.72;1.60;;;;;;;;;;5108020;27;20047;-61
2023/10/22 04:29:26;;;;;;;6.55;2.13;;;;;;;;;;5084715;28;20533;-59
2023/10/22 04:31:52;;;;;;;3.30;1.40;;;;;;;;;;5086491;28;20035;-59
2023/10/22 04:34:18;;;;;;;2.78;1.30;;;;;;;;;;5108134;27;20526;-60
2023/10/22 04:36:44;;;;;;;3.47;1.95;;;;;;;;;;5089150;28;20048;-58
2023/10/22 04:39:10;;;;;;;2.50;1.20;;;;;;;;;;5106033;27;20040;-60
2023/10/22 04:41:36;;;;;;;2.22;1.20;;;;;;;;;;5106545;27;20044;-60
2023/10/22 04:44:04;;;;;;;6.35;1.10;;;;;;;;;;5109098;27;20024;-60
2023/10/22 04:46:30;;;;;;;3.88;1.20;;;;;;;;;;5103318;27;20035;-60
2023/10/22 04:48:56;;;;;;;5.53;1.17;;;;;;;;;;5082952;28;20031;-60
2023/10/22 04:51:22;;;;;;;4.80;1.30;;;;;;;;;;5092076;27;20031;-60
2023/10/22 04:53:48;;;;;;;1.98;1.10;;;;;;;;;;5113469;27;20502;-60
2023/10/22 04:56:14;;;;;;;3.30;1.25;;;;;;;;;;5088284;27;20060;-60
2023/10/22 04:58:40;;;;;;;2.72;1.45;;;;;;;;;;5105219;27;20039;-60
2023/10/22 05:01:07;;;;;;;2.28;1.20;;;;;;;;;;5109706;27;20027;-60
2023/10/22 05:03:33;;;;;;;2.88;0.90;;;;;;;;;;5089761;28;20043;-60
2023/10/22 05:06:05;;;;;;;3.92;1.67;;;;;;;;;;5108422;27;20043;-59
2023/10/22 05:08:31;;;;;;;4.57;1.20;;;;;;;;;;5090141;28;20514;-59
2023/10/22 05:10:57;;;;;;;3.78;1.35;;;;;;;;;;5103244;27;20051;-59
2023/10/22 05:13:23;;;;;;;5.07;1.30;;;;;;;;;;5086187;28;20043;-59
2023/10/22 05:15:50;;;;;;;4.55;1.15;;;;;;;;;;5104540;27;20027;-59
2023/10/22 05:18:16;;;;;;;6.65;1.40;;;;;;;;;;5102608;28;20031;-59
2023/10/22 05:20:42;;;;;;;3.10;1.48;;;;;;;;;;5100938;27;20048;-59
2023/10/22 05:23:08;;;;;;;4.25;1.85;;;;;;;;;;5085860;27;20044;-59
2023/10/22 05:25:36;;;;;;;4.18;1.23;;;;;;;;;;5104561;27;20028;-59
2023/10/22 05:28:02;;;;;;;2.75;1.45;;;;;;;;;;5083288;27;20393;-59
2023/10/22 05:30:31;;;;;;;5.72;1.70;;;;;;;;;;5103183;27;20042;-59
2023/10/22 05:32:57;;;;;;;1.58;0.98;;;;;;;;;;5109257;27;20038;-59
2023/10/22 05:35:23;;;;;;;4.68;1.30;;;;;;;;;;5109730;27;20051;-59
2023/10/22 05:37:51;;;;;;;1.10;0.80;;;;;;;;;;5104668;27;20039;-59
2023/10/22 05:40:18;;;;;;;2.70;1.55;;;;;;;;;;5102446;27;20043;-59
2023/10/22 05:42:44;;;;;;;5.28;1.95;;;;;;;;;;5087539;28;20054;-59
2023/10/22 05:45:10;;;;;;;5.22;1.58;;;;;;;;;;5105050;27;20495;-60
2023/10/22 05:47:37;;;;;;;5.18;1.10;;;;;;;;;;5101621;28;20059;-59
2023/10/22 05:50:04;;;;;;;3.63;1.30;;;;;;;;;;5107349;27;20055;-59
2023/10/22 05:52:30;;;;;;;5.40;1.60;;;;;;;;;;5107395;27;20394;-59
2023/10/22 05:54:56;;;;;;;3.15;1.30;;;;;;;;;;5108081;27;20060;-59
2023/10/22 05:57:23;;;;;;;6.22;1.92;;;;;;;;;;5106112;27;20039;-59
2023/10/22 05:59:49;;;;;;;3.22;1.10;;;;;;;;;;5107136;27;20506;-60
2023/10/22 06:02:15;;;;;;;1.48;1.10;;;;;;;;;;5090101;27;20050;-59
2023/10/22 06:04:41;;;;;;;3.58;0.80;;;;;;;;;;5107049;27;20050;-59
2023/10/22 06:07:07;;;;;;;3.40;0.90;;;;;;;;;;5107253;27;20038;-59
2023/10/22 06:09:36;;;;;;;3.97;0.80;;;;;;;;;;5103415;27;20522;-59
2023/10/22 06:12:03;;;;;;;2.20;0.90;;;;;;;;;;5103598;27;20028;-60
2023/10/22 06:14:29;;;;;;;4.13;1.00;;;;;;;;;;5101749;28;20027;-59
2023/10/22 06:16:55;;;;;;;2.45;1.00;;;;;;;;;;5102869;28;20062;-59
2023/10/22 06:19:22;;;;;;;2.88;0.93;;;;;;;;;;5083677;28;20048;-59
2023/10/22 06:21:48;;;;;;;3.20;1.42;;;;;;;;;;5101940;28;20300;-60
2023/10/22 06:24:14;;;;;;;6.03;1.75;;;;;;;;;;5105513;27;20031;-60
2023/10/22 06:26:40;;;;;;;4.57;1.10;;;;;;;;;;5103263;28;20031;-58
2023/10/22 06:29:06;;;;;;;3.20;1.80;;;;;;;;;;5091192;28;20036;-58
2023/10/22 06:31:32;;;;;;;5.43;1.33;;;;;;;;;;5107692;28;20082;-58
2023/10/22 06:33:58;;;;;;;2.70;1.33;;;;;;;;;;5107361;28;20446;-59
2023/10/22 06:36:24;;;;;;;7.85;1.60;;;;;;;;;;5105007;28;20035;-59
2023/10/22 06:38:50;;;;;;;3.35;1.60;;;;;;;;;;5102556;28;20056;-59
2023/10/22 06:41:17;;;;;;;2.70;1.20;;;;;;;;;;5097194;27;20050;-59
2023/10/22 06:43:44;;;;;;;3.72;1.65;;;;;;;;;;5107283;27;20052;-60
2023/10/22 06:46:10;;;;;;;4.82;1.77;;;;;;;;;;5106199;28;20047;-59
2023/10/22 06:48:37;;;;;;;3.50;1.30;;;;;;;;;;5110662;27;20042;-59
2023/10/22 06:51:07;;;;;;;4.43;1.48;;;;;;;;;;5092473;28;20046;-59
2023/10/22 06:53:33;;;;;;;6.35;2.53;;;;;;;;;;5109455;28;20036;-59
2023/10/22 06:56:02;;;;;;;6.50;2.08;;;;;;;;;;5112203;27;20046;-60
2023/10/22 06:58:28;;;;;;;5.17;1.60;;;;;;;;;;5111942;27;20051;-60
2023/10/22 07:01:05;;;;;;;4.60;1.42;;;;;;;;;;5093292;28;20297;-59
2023/10/22 07:03:35;;;;;;;3.33;1.27;;;;;;;;;;5106388;27;20059;-59
2023/10/22 07:06:01;;;;;;;;;;;;;;;;;;5110334;27;20571;-59
2023/10/22 07:08:28;;;;;;;4.80;1.00;;;;;;;;;;5108071;27;19911;-59
2023/10/22 07:10:54;;;;;;;5.20;1.52;;;;;;;;;;5109048;27;20035;-59
2023/10/22 07:13:20;;;;;;;7.78;2.65;;;;;;;;;;5108710;27;20402;-59
2023/10/22 07:15:47;;;;;;;3.50;1.40;;;;;;;;;;5112746;27;20027;-59
2023/10/22 07:18:13;;;;;;;6.57;1.17;;;;;;;;;;5108635;27;20044;-59
2023/10/22 07:20:39;;;;;;;1.67;0.80;;;;;;;;;;5101104;28;20075;-60
2023/10/22 07:23:06;;;;;;;4.68;1.00;;;;;;;;;;5085126;27;20047;-58
2023/10/22 07:25:33;;;;;;;4.47;1.40;;;;;;;;;;5113191;27;20027;-60
2023/10/22 07:28:00;;;;;;;3.55;0.90;;;;;;;;;;5110468;27;20557;-60
2023/10/22 07:30:26;;;;;;;2.55;0.70;;;;;;;;;;5112631;27;20031;-60
2023/10/22 07:32:53;;;;;;;6.50;0.90;;;;;;;;;;5111737;27;20039;-60
2023/10/22 07:35:20;;;;;;;4.43;1.20;;;;;;;;;;5110535;27;20039;-59
2023/10/22 07:37:46;;;;;;;3.13;0.82;;;;;;;;;;5089817;28;20089;-60
2023/10/22 07:40:17;;;;;;;4.65;1.70;;;;;;;;;;5107658;27;20047;-59
2023/10/22 07:42:44;;;;;;;3.70;1.17;;;;;;;;;;5107272;27;20043;-58
2023/10/22 07:45:11;;;;;;;5.25;0.98;;;;;;;;;;5111083;27;20047;-59
2023/10/22 07:47:38;;;;;;;3.75;1.00;;;;;;;;;;5108594;27;20028;-58
2023/10/22 07:50:05;;;;;;;5.55;1.10;;;;;;;;;;5111621;27;20255;-59
2023/10/22 07:52:32;;;;;;;2.42;0.60;;;;;;;;;;5111422;27;20450;-59
2023/10/22 07:54:58;;;;;;;4.63;1.13;;;;;;;;;;5093220;28;20024;-60
2023/10/22 07:57:26;;;;;;;1.65;0.80;;;;;;;;;;5110518;27;20027;-60
2023/10/22 07:59:56;;;;;;;2.25;0.80;;;;;;;;;;5109567;27;20040;-59
2023/10/22 08:02:23;;;;;;;;;;;;;;;;;;5109938;27;20035;-59
2023/10/22 08:04:49;;;;;;;3.67;0.98;;;;;;;;;;5094774;28;19919;-58
2023/10/22 08:07:19;;;;;;;3.30;1.17;;;;;;;;;;5107026;27;20043;-59
2023/10/22 08:09:46;;;;;;;6.55;1.85;;;;;;;;;;5109096;27;20040;-58
2023/10/22 08:12:13;;;;;;;5.97;1.17;;;;;;;;;;5106031;27;20043;-58
2023/10/22 08:14:39;;;;;;;3.65;0.95;;;;;;;;;;5107354;27;20034;-59
2023/10/22 08:17:05;;;;;;;6.32;1.00;;;;;;;;;;5108888;27;20040;-59
2023/10/22 08:19:32;;;;;;;2.58;0.80;;;;;;;;;;5102589;27;20417;-59
2023/10/22 08:21:58;;;;;;;7.30;1.25;;;;;;;;;;5107093;28;20027;-59
2023/10/22 08:24:24;;;;;;;4.55;0.70;;;;;;;;;;5111509;27;20038;-59
2023/10/22 08:26:50;;;;;;;6.40;1.00;;;;;;;;;;5109045;27;20035;-59
2023/10/22 08:29:16;;;;;;;1.48;0.60;;;;;;;;;;5111730;27;20062;-59
2023/10/22 08:31:42;;;;;;;2.38;0.80;;;;;;;;;;5109938;27;20713;-59
2023/10/22 08:34:08;;;;;;;5.18;0.70;;;;;;;;;;5110347;27;20646;-59
2023/10/22 08:36:35;;;;;;;9.18;1.55;;;;;;;;;;5108041;27;20051;-59
2023/10/22 08:39:02;;;;;;;4.40;0.88;;;;;;;;;;5111052;27;20036;-59
2023/10/22 08:41:36;;;;;;;4.72;0.90;;;;;;;;;;5111076;27;20066;-59
2023/10/22 08:44:03;;;;;;;2.70;0.70;;;;;;;;;;5106899;27;20046;-58
2023/10/22 08:46:32;;;;;;;4.95;1.42;;;;;;;;;;5105621;27;20031;-58
2023/10/22 08:48:58;;;;;;;6.88;1.00;;;;;;;;;;5107753;27;20032;-60
2023/10/22 08:51:25;;;;;;;3.08;0.68;;;;;;;;;;5111822;27;20034;-60
2023/10/22 08:53:51;;;;;;;7.47;1.27;;;;;;;;;;5091417;28;20417;-60
2023/10/22 08:56:18;;;;;;;5.25;0.75;;;;;;;;;;5088813;27;20050;-60
2023/10/22 08:58:44;;;;;;;2.85;0.57;;;;;;;;;;5108484;27;20042;-59
2023/10/22 09:01:10;;;;;;;2.88;0.90;;;;;;;;;;5109846;27;20036;-60
2023/10/22 09:03:36;;;;;;;4.13;0.85;;;;;;;;;;5106114;27;20054;-59
2023/10/22 09:06:05;;;;;;;4.05;0.70;;;;;;;;;;5105540;28;20027;-60
2023/10/22 09:08:43;;;;;;;2.78;0.70;;;;;;;;;;5103781;27;20032;-59
2023/10/22 09:11:16;;;;;;;3.17;0.75;;;;;;;;;;5110085;27;20043;-60
2023/10/22 09:13:47;;;;;;;4.68;0.95;;;;;;;;;;5103648;27;20054;-59
2023/10/22 09:16:29;;;;;;;2.72;0.70;;;;;;;;;;5108500;27;20039;-59
2023/10/22 09:18:57;;;;;;;2.08;0.60;;;;;;;;;;5108971;27;20054;-60
2023/10/22 09:21:39;;;;;;;3.40;0.75;;;;;;;;;;5108366;27;20034;-60
2023/10/22 09:24:05;;;;;;;4.65;1.20;;;;;;;;;;5110082;27;20048;-59
2023/10/22 09:26:49;;;;;;;4.07;0.80;;;;;;;;;;5110693;27;20019;-60
2023/10/22 09:29:16;;;;;;;5.25;1.27;;;;;;;;;;5112268;27;20046;-59
2023/10/22 09:31:55;;;;;;;4.75;0.60;;;;;;;;;;5108593;27;20031;-60
2023/10/22 09:34:29;;;;;;;4.65;1.00;;;;;;;;;;5089683;28;20031;-58
2023/10/22 09:36:55;;;;;;;2.58;0.80;;;;;;;;;;5108531;27;20039;-59
2023/10/22 09:39:44;;;;;;;5.18;0.88;;;;;;;;;;5105704;27;20042;-58
2023/10/22 09:42:13;;;;;;;4.82;0.90;;;;;;;;;;5108955;27;20418;-60
2023/10/22 09:44:46;;;;;;;8.00;1.20;;;;;;;;;;5104847;27;20070;-58
2023/10/22 09:47:20;;;;;;;2.38;1.00;;;;;;;;;;5111901;27;20348;-59
2023/10/22 09:50:08;;;;;;;2.20;0.77;;;;;;;;;;5101412;28;20522;-59
2023/10/22 09:52:38;;;;;;;2.22;0.55;;;;;;;;;;5108252;27;20039;-59
2023/10/22 09:55:06;;;;;;;1.60;0.65;;;;;;;;;;5108480;27;20125;-58
2023/10/22 09:57:34;;;;;;;2.63;0.52;;;;;;;;;;5104067;27;20040;-58
2023/10/22 10:00:08;;;;;;;0.90;0.40;;;;;;;;;;5106437;27;20024;-60
2023/10/22 10:02:35;;;;;;;2.58;0.60;;;;;;;;;;5106107;27;20047;-59
2023/10/22 10:05:06;;;;;;;2.47;0.70;;;;;;;;;;5105398;27;20054;-59
2023/10/22 10:07:32;;;;;;;3.10;0.80;;;;;;;;;;5101232;27;20050;-58
2023/10/22 10:09:59;;;;;;;2.25;0.60;;;;;;;;;;5106552;27;20031;-60
2023/10/22 10:12:28;;;;;;;2.28;0.45;;;;;;;;;;5109253;27;20393;-59
2023/10/22 10:14:54;;;;;;;1.75;0.50;;;;;;;;;;5105129;28;20047;-60
2023/10/22 10:17:21;;;;;;;1.65;0.40;;;;;;;;;;5104915;27;20041;-59
2023/10/22 10:19:47;;;;;;;2.10;0.52;;;;;;;;;;5090795;28;20035;-58
2023/10/22 10:22:42;;;;;;;1.25;0.50;;;;;;;;;;5090418;27;20478;-58
2023/10/22 10:25:28;;;;;;;1.52;0.60;;;;;;;;;;5110610;27;20047;-56
2023/10/22 10:27:55;;;;;;;2.17;0.60;;;;;;;;;;5109254;27;20027;-60
2023/10/22 10:30:21;;;;;;;3.08;0.70;;;;;;;;;;5087489;28;20053;-59
2023/10/22 10:32:51;;;;;;;1.55;0.40;;;;;;;;;;5103536;28;20044;-59
2023/10/22 10:35:18;;;;;;;1.25;0.35;;;;;;;;;;5106039;28;20047;-59
2023/10/22 10:38:17;;;;;;;2.08;0.40;;;;;;;;;;5109678;28;20024;-60
2023/10/22 10:41:03;;;;;;;2.30;0.30;;;;;;;;;;5101790;28;20068;-60
2023/10/22 10:44:05;;;;;;;1.38;0.40;;;;;;;;;;5101610;28;20040;-59
2023/10/22 10:46:32;;;;;;;2.85;0.60;;;;;;;;;;5079726;28;20043;-60
2023/10/22 10:48:58;;;;;;;0.63;0.30;;;;;;;;;;5102081;28;20419;-60
2023/10/22 10:51:24;;;;;;;1.45;0.60;;;;;;;;;;5109961;28;20509;-60
2023/10/22 10:54:07;;;;;;;2.10;0.47;;;;;;;;;;5104991;28;20039;-60
2023/10/22 10:56:49;;;;;;;3.78;0.50;;;;;;;;;;5103668;28;20044;-59
2023/10/22 10:59:31;;;;;;;1.10;0.90;;;;;;;;;;5115500;28;20031;-60
2023/10/22 11:02:10;;;;;;;2.65;0.80;;;;;;;;;;5088730;28;20054;-60
2023/10/22 11:04:38;;;;;;;1.50;0.60;;;;;;;;;;5101696;28;20036;-59
2023/10/22 11:07:06;;;;;;;2.45;0.50;;;;;;;;;;5102645;28;20031;-59
2023/10/22 11:09:34;;;;;;;1.85;0.80;;;;;;;;;;5103081;28;20047;-58
2023/10/22 11:12:04;;;;;;;2.80;1.10;;;;;;;;;;5087015;28;20035;-59
2023/10/22 11:14:35;;;;;;;3.00;1.08;;;;;;;;;;5090299;28;20506;-59
2023/10/22 11:17:02;;;;;;;3.10;1.00;;;;;;;;;;5089526;28;20040;-58
2023/10/22 11:19:30;;;;;;;2.55;0.70;;;;;;;;;;5110493;28;20038;-60
2023/10/22 11:21:57;;;;;;;2.53;0.50;;;;;;;;;;5107152;28;20040;-60
2023/10/22 11:24:29;;;;;;;1.65;0.50;;;;;;;;;;5106248;28;20046;-59
2023/10/22 11:26:57;;;;;;;0.98;0.50;;;;;;;;;;5111115;27;20039;-59
2023/10/22 11:29:23;;;;;;;2.75;0.80;;;;;;;;;;5109001;27;20046;-59
2023/10/22 11:31:56;;;;;;;2.40;0.77;;;;;;;;;;5108878;27;20043;-59
2023/10/22 11:34:22;;;;;;;1.80;0.52;;;;;;;;;;5108918;27;20050;-59
2023/10/22 11:36:57;;;;;;;1.10;0.70;;;;;;;;;;5115170;27;20039;-58
2023/10/22 11:39:32;;;;;;;2.30;0.60;;;;;;;;;;5100296;27;20032;-60
2023/10/22 11:41:58;;;;;;;1.73;0.60;;;;;;;;;;5090164;28;20044;-60
2023/10/22 11:44:30;;;;;;;2.25;0.60;;;;;;;;;;5112779;27;20035;-60
2023/10/22 11:47:02;;;;;;;0.90;0.30;;;;;;;;;;5106091;27;20023;-60
2023/10/22 11:49:28;;;;;;;1.33;0.40;;;;;;;;;;5111844;27;20028;-60
2023/10/22 11:51:55;;;;;;;1.92;0.52;;;;;;;;;;5107128;28;20495;-60
2023/10/22 11:54:44;;;;;;;1.42;0.60;;;;;;;;;;5085983;27;20502;-59
2023/10/22 11:57:10;;;;;;;1.02;0.30;;;;;;;;;;5109934;27;20043;-59
2023/10/22 11:59:36;;;;;;;1.02;0.40;;;;;;;;;;5110328;27;20028;-60
2023/10/22 12:02:02;;;;;;;1.38;0.47;;;;;;;;;;5090333;27;20040;-60
2023/10/22 12:04:29;;;;;;;1.55;0.60;;;;;;;;;;5108645;27;20512;-60
2023/10/22 12:06:55;;;;;;;2.45;0.60;;;;;;;;;;5104230;27;20024;-60
2023/10/22 12:09:21;;;;;;;1.60;0.50;;;;;;;;;;5113107;27;20035;-60
2023/10/22 12:11:47;;;;;;;3.50;0.47;;;;;;;;;;5093996;28;20058;-60
2023/10/22 12:14:13;;;;;;;3.83;0.82;;;;;;;;;;5113183;27;20034;-59
2023/10/22 12:16:39;;;;;;;1.77;0.45;;;;;;;;;;5109568;27;20499;-59
2023/10/22 12:19:05;;;;;;;2.65;0.50;;;;;;;;;;5111527;27;20046;-58
2023/10/22 12:21:31;;;;;;;4.55;0.82;;;;;;;;;;5110557;27;20047;-60
2023/10/22 12:23:57;;;;;;;2.08;0.85;;;;;;;;;;5092589;28;20043;-58
2023/10/22 12:26:23;;;;;;;4.53;0.60;;;;;;;;;;5112046;27;20043;-59
2023/10/22 12:28:49;;;;;;;3.45;0.60;;;;;;;;;;5108811;27;20044;-59
2023/10/22 12:31:15;;;;;;;2.78;0.60;;;;;;;;;;5108105;27;20052;-59
2023/10/22 12:33:42;;;;;;;3.08;0.70;;;;;;;;;;5110017;27;20031;-59
2023/10/22 12:36:08;;;;;;;2.20;0.55;;;;;;;;;;5112858;27;20024;-60
2023/10/22 12:38:34;;;;;;;1.95;0.40;;;;;;;;;;5108346;27;20032;-60
2023/10/22 12:41:00;;;;;;;2.10;0.50;;;;;;;;;;5105398;27;20032;-60
2023/10/22 12:43:26;;;;;;;4.30;1.30;;;;;;;;;;5073087;28;20036;-60
2023/10/22 12:45:52;;;;;;;2.50;0.50;;;;;;;;;;5109491;27;20027;-60
2023/10/22 12:48:18;;;;;;;3.05;0.70;;;;;;;;;;5111362;27;20047;-59
2023/10/22 12:50:48;;;;;;;1.77;0.50;;;;;;;;;;5112670;27;20040;-59
2023/10/22 12:53:15;;;;;;;4.03;0.68;;;;;;;;;;5111912;27;20054;-60
2023/10/22 12:55:41;;;;;;;1.15;0.40;;;;;;;;;;5109219;27;20430;-59
2023/10/22 12:58:07;;;;;;;1.38;0.40;;;;;;;;;;5109193;27;20408;-60
2023/10/22 13:00:33;;;;;;;2.58;0.50;;;;;;;;;;5086683;28;20043;-60
2023/10/22 13:02:59;;;;;;;3.53;0.70;;;;;;;;;;5088337;27;20091;-60
2023/10/22 13:05:25;;;;;;;3.78;0.80;;;;;;;;;;5106871;27;20031;-60
2023/10/22 13:07:51;;;;;;;2.45;0.70;;;;;;;;;;5106455;27;20526;-59
2023/10/22 13:10:17;;;;;;;2.58;0.63;;;;;;;;;;5100051;27;20039;-59
2023/10/22 13:12:43;;;;;;;3.67;0.60;;;;;;;;;;5112236;27;20035;-59
2023/10/22 13:15:10;;;;;;;3.15;1.05;;;;;;;;;;5115414;27;20027;-59
2023/10/22 13:17:36;;;;;;;2.38;0.70;;;;;;;;;;5111235;27;20039;-59
2023/10/22 13:20:05;;;;;;;2.33;0.60;;;;;;;;;;5111433;27;20032;-59
2023/10/22 13:22:32;;;;;;;1.70;0.70;;;;;;;;;;5101897;27;20046;-59
2023/10/22 13:24:58;;;;;;;3.05;0.43;;;;;;;;;;5091960;28;20042;-59
2023/10/22 13:27:24;;;;;;;2.55;0.63;;;;;;;;;;5109326;27;20027;-59
2023/10/22 13:29:50;;;;;;;3.53;0.75;;;;;;;;;;5107776;27;20386;-59
2023/10/22 13:32:16;;;;;;;2.47;0.60;;;;;;;;;;5110426;27;20055;-59
2023/10/22 13:34:43;;;;;;;1.77;0.40;;;;;;;;;;5111391;27;20028;-59
2023/10/22 13:37:10;;;;;;;2.38;0.60;;;;;;;;;;5112617;27;20050;-61
2023/10/22 13:39:36;;;;;;;1.98;0.50;;;;;;;;;;5106352;27;20398;-59
2023/10/22 13:42:02;;;;;;;3.30;0.60;;;;;;;;;;5092488;28;20043;-59
2023/10/22 13:44:28;;;;;;;2.78;0.88;;;;;;;;;;5109261;27;20035;-59
2023/10/22 13:46:54;;;;;;;3.38;0.52;;;;;;;;;;5111728;27;20046;-59
2023/10/22 13:49:21;;;;;;;4.38;0.60;;;;;;;;;;5106975;27;20039;-59
2023/10/22 13:51:47;;;;;;;4.38;0.50;;;;;;;;;;5108591;27;20038;-58
2023/10/22 13:54:13;;;;;;;2.40;0.40;;;;;;;;;;5105634;27;20047;-58
2023/10/22 13:56:39;;;;;;;1.95;0.52;;;;;;;;;;5104863;27;20043;-58
2023/10/22 13:59:08;;;;;;;2.35;0.45;;;;;;;;;;5106143;27;20383;-59
2023/10/22 14:01:35;;;;;;;2.10;0.52;;;;;;;;;;5100451;27;20032;-59
2023/10/22 14:04:01;;;;;;;2.13;0.73;;;;;;;;;;5099662;27;20031;-60
2023/10/22 14:06:27;;;;;;;3.03;0.82;;;;;;;;;;5115454;27;20039;-59
2023/10/22 14:08:53;;;;;;;2.22;0.60;;;;;;;;;;5112353;27;20046;-59
2023/10/22 14:11:21;;;;;;;2.42;0.60;;;;;;;;;;5113522;27;20028;-58
2023/10/22 14:13:51;;;;;;;2.17;0.60;;;;;;;;;;5107998;27;20644;-60
2023/10/22 14:16:20;;;;;;;4.28;0.90;;;;;;;;;;5108496;27;20052;-59
2023/10/22 14:18:46;;;;;;;4.22;0.90;;;;;;;;;;5092416;28;20043;-61
2023/10/22 14:21:15;;;;;;;1.88;0.75;;;;;;;;;;5109951;27;20039;-60
2023/10/22 14:23:42;;;;;;;3.50;0.98;;;;;;;;;;5108150;28;20058;-60
2023/10/22 14:26:08;;;;;;;3.10;1.30;;;;;;;;;;5088512;28;20047;-60
2023/10/22 14:28:34;;;;;;;3.08;1.30;;;;;;;;;;5107994;27;20040;-60
2023/10/22 14:31:07;;;;;;;4.45;1.73;;;;;;;;;;5108910;27;20052;-60
2023/10/22 14:33:34;;;;;;;4.93;1.35;;;;;;;;;;5111908;27;20425;-60
2023/10/22 14:36:02;;;;;;;3.85;0.80;;;;;;;;;;5109588;28;20043;-60
2023/10/22 14:38:28;;;;;;;3.30;0.70;;;;;;;;;;5114366;28;20034;-60
2023/10/22 14:40:54;;;;;;;2.72;0.57;;;;;;;;;;5092988;28;20040;-60
2023/10/22 14:43:21;;;;;;;2.88;0.60;;;;;;;;;;5114703;28;20506;-60
2023/10/22 14:45:47;;;;;;;2.80;0.65;;;;;;;;;;5089994;28;20039;-60
2023/10/22 14:48:15;;;;;;;5.50;0.98;;;;;;;;;;5110796;28;20113;-60